Time;durP1;ratioP1;P1;durP2;ratioP2;P2;SDS_P1;SDS_P2;PMS_P1;PMS_P2;Temp;Humidity;BMP_temperature;BMP_pressure;BME280_temperature;BME280_humidity;BME280_pressure;Samples;Min_cycle;Max_cycle;Signal;HPM_P1;HPM_P2
2023/04/21 00:02:16;;;;;;;12.85;5.03;;;8.40;99.90;;;;;;5094582;28;20021;-72
2023/04/21 00:04:44;;;;;;;11.23;5.32;;;8.30;99.90;;;;;;5095241;28;20027;-71
2023/04/21 00:07:10;;;;;;;14.80;5.45;;;8.30;99.90;;;;;;5077341;28;20028;-71
2023/04/21 00:09:36;;;;;;;12.77;5.72;;;8.30;99.90;;;;;;5095433;28;20475;-72
2023/04/21 00:12:01;;;;;;;10.95;5.50;;;8.30;99.90;;;;;;5095331;28;20050;-71
2023/04/21 00:14:27;;;;;;;12.50;5.65;;;8.30;99.90;;;;;;5095258;28;20498;-72
2023/04/21 00:16:52;;;;;;;10.73;5.30;;;8.30;99.90;;;;;;5095368;28;20055;-72
2023/04/21 00:19:18;;;;;;;13.02;5.75;;;8.30;99.90;;;;;;5095374;28;20086;-72
2023/04/21 00:21:45;;;;;;;12.50;5.90;;;8.30;99.90;;;;;;5095298;28;20039;-71
2023/04/21 00:24:10;;;;;;;11.43;5.55;;;8.30;99.90;;;;;;5095310;28;20031;-71
2023/04/21 00:26:36;;;;;;;14.27;5.75;;;8.30;99.90;;;;;;5095170;28;20024;-71
2023/04/21 00:29:01;;;;;;;10.95;5.85;;;8.30;99.90;;;;;;5095109;28;20032;-72
2023/04/21 00:31:27;;;;;;;14.02;6.50;;;8.30;99.90;;;;;;5095115;28;20082;-71
2023/04/21 00:33:53;;;;;;;14.10;6.18;;;8.30;99.90;;;;;;5094813;28;20024;-71
2023/04/21 00:36:18;;;;;;;14.80;6.63;;;8.30;99.90;;;;;;5077054;28;20478;-72
2023/04/21 00:38:44;;;;;;;12.32;6.30;;;8.30;99.90;;;;;;5094951;28;20024;-72
2023/04/21 00:41:09;;;;;;;11.85;5.97;;;8.30;99.90;;;;;;5076704;28;20022;-73
2023/04/21 00:43:35;;;;;;;11.00;6.22;;;8.30;99.90;;;;;;5076267;28;20558;-71
2023/04/21 00:46:01;;;;;;;13.80;5.93;;;8.20;99.90;;;;;;5094875;28;20055;-71
2023/04/21 00:48:27;;;;;;;11.88;5.78;;;;;;;;;;5094545;28;20073;-73
2023/04/21 00:50:52;;;;;;;12.20;6.45;;;8.20;99.90;;;;;;5095108;28;20081;-74
2023/04/21 00:53:19;;;;;;;14.75;6.30;;;8.20;99.90;;;;;;5094280;28;20027;-72
2023/04/21 00:55:45;;;;;;;14.35;6.30;;;8.20;99.90;;;;;;5094453;28;20078;-72
2023/04/21 00:58:11;;;;;;;15.98;6.82;;;8.20;99.90;;;;;;5094404;28;20032;-71
2023/04/21 01:00:38;;;;;;;15.55;6.75;;;8.20;99.90;;;;;;5094411;28;20161;-72
2023/04/21 01:03:05;;;;;;;15.18;6.68;;;8.20;99.90;;;;;;5076054;28;20020;-72
2023/04/21 01:05:31;;;;;;;19.30;7.38;;;8.20;99.90;;;;;;5075855;28;20212;-72
2023/04/21 01:07:56;;;;;;;15.45;7.72;;;8.20;99.90;;;;;;5094847;28;20024;-71
2023/04/21 01:10:22;;;;;;;15.13;7.68;;;8.20;99.90;;;;;;5094184;28;20034;-72
2023/04/21 01:12:48;;;;;;;15.45;7.35;;;8.20;99.90;;;;;;5075896;28;20115;-71
2023/04/21 01:15:16;;;;;;;16.58;7.90;;;8.20;99.90;;;;;;5093948;28;20107;-72
2023/04/21 01:17:42;;;;;;;18.20;7.80;;;8.20;99.90;;;;;;5094240;28;20052;-72
2023/04/21 01:20:10;;;;;;;18.13;9.23;;;8.20;99.90;;;;;;5094520;28;20028;-73
2023/04/21 01:22:41;;;;;;;17.40;7.85;;;8.20;99.90;;;;;;5094016;28;20443;-73
2023/04/21 01:25:07;;;;;;;20.65;9.27;;;8.10;99.90;;;;;;5075485;28;20437;-73
2023/04/21 01:27:33;;;;;;;18.73;8.77;;;8.10;99.90;;;;;;5093910;28;20024;-73
2023/04/21 01:29:59;;;;;;;18.48;8.52;;;8.10;99.90;;;;;;5093792;28;20028;-74
2023/04/21 01:32:30;;;;;;;27.15;9.73;;;8.10;99.90;;;;;;5094311;28;20430;-72
2023/04/21 01:34:58;;;;;;;18.55;8.15;;;8.10;99.90;;;;;;5093531;28;20501;-72
2023/04/21 01:37:27;;;;;;;19.75;9.05;;;8.10;99.90;;;;;;5094056;28;20027;-71
2023/04/21 01:39:55;;;;;;;21.45;8.90;;;8.10;99.90;;;;;;5075681;28;20020;-71
2023/04/21 01:42:23;;;;;;;19.52;7.97;;;8.10;99.90;;;;;;5094243;28;20051;-72
2023/04/21 01:44:48;;;;;;;20.48;9.73;;;8.10;99.90;;;;;;5093565;28;20387;-72
2023/04/21 01:47:15;;;;;;;17.73;8.23;;;8.10;99.90;;;;;;5075405;28;20016;-71
2023/04/21 01:49:41;;;;;;;21.63;8.75;;;8.10;99.90;;;;;;5075520;28;20096;-72
2023/04/21 01:52:07;;;;;;;20.95;9.70;;;8.10;99.90;;;;;;5075506;28;20020;-72
2023/04/21 01:54:32;;;;;;;20.52;9.60;;;8.10;99.90;;;;;;5092935;28;20032;-72
2023/04/21 01:56:58;;;;;;;20.52;9.25;;;8.10;99.90;;;;;;5094193;28;20051;-72
2023/04/21 01:59:24;;;;;;;22.10;9.30;;;8.10;99.90;;;;;;5093468;28;20035;-72
2023/04/21 02:01:50;;;;;;;18.88;9.05;;;8.10;99.90;;;;;;5093031;28;20052;-72
2023/04/21 02:04:16;;;;;;;21.40;9.45;;;8.10;99.90;;;;;;5093287;28;20542;-72
2023/04/21 02:06:41;;;;;;;22.00;9.68;;;8.10;99.90;;;;;;5093501;28;20031;-72
2023/04/21 02:09:07;;;;;;;20.23;9.45;;;8.10;99.90;;;;;;5093346;28;20024;-72
2023/04/21 02:11:32;;;;;;;23.33;9.55;;;8.10;99.90;;;;;;5075444;28;20119;-72
2023/04/21 02:13:58;;;;;;;23.58;10.75;;;8.10;99.90;;;;;;5093185;28;20032;-72
2023/04/21 02:16:25;;;;;;;23.25;9.43;;;8.10;99.90;;;;;;5093381;28;20055;-72
2023/04/21 02:18:52;;;;;;;19.90;8.80;;;8.10;99.90;;;;;;5093325;28;20032;-72
2023/04/21 02:21:19;;;;;;;24.27;10.50;;;8.10;99.90;;;;;;5075494;28;20031;-72
2023/04/21 02:23:45;;;;;;;24.75;10.07;;;8.20;99.90;;;;;;5093361;28;20479;-72
2023/04/21 02:26:10;;;;;;;23.90;10.30;;;8.10;99.90;;;;;;5096361;28;20150;-72
2023/04/21 02:28:36;;;;;;;22.08;8.95;;;8.20;99.90;;;;;;5097475;28;20063;-71
2023/04/21 02:31:01;;;;;;;22.90;10.00;;;8.20;99.90;;;;;;5097515;28;20031;-71
2023/04/21 02:33:27;;;;;;;20.77;9.40;;;8.20;99.90;;;;;;5079223;28;20024;-72
2023/04/21 02:35:52;;;;;;;23.45;10.25;;;8.20;99.90;;;;;;5079269;28;20052;-72
2023/04/21 02:38:18;;;;;;;24.15;10.85;;;8.10;99.90;;;;;;5097111;28;20020;-72
2023/04/21 02:40:43;;;;;;;24.33;9.85;;;8.10;99.90;;;;;;5079030;28;20012;-71
2023/04/21 02:43:09;;;;;;;23.05;10.43;;;8.10;99.90;;;;;;5079036;28;20110;-72
2023/04/21 02:45:36;;;;;;;25.83;10.65;;;8.10;99.90;;;;;;5097042;28;20023;-72
2023/04/21 02:48:01;;;;;;;21.02;9.93;;;8.10;99.90;;;;;;5097214;28;20060;-72
2023/04/21 02:50:27;;;;;;;24.10;10.35;;;;;;;;;;5078982;28;20537;-72
2023/04/21 02:52:56;;;;;;;23.38;10.40;;;8.10;99.90;;;;;;5097087;28;20106;-72
2023/04/21 02:55:21;;;;;;;24.20;11.13;;;8.10;99.90;;;;;;5096954;28;20395;-72
2023/04/21 02:57:47;;;;;;;24.38;10.38;;;8.10;99.90;;;;;;5096688;28;20024;-72
2023/04/21 03:00:14;;;;;;;22.15;10.55;;;8.10;99.90;;;;;;5097108;28;20028;-72
2023/04/21 03:02:40;;;;;;;27.88;11.70;;;8.10;99.90;;;;;;5096921;28;20032;-72
2023/04/21 03:05:05;;;;;;;24.02;10.80;;;8.10;99.90;;;;;;5078796;28;20065;-72
2023/04/21 03:07:31;;;;;;;22.50;10.50;;;8.10;99.90;;;;;;5097060;28;20380;-72
2023/04/21 03:09:57;;;;;;;26.52;12.02;;;8.10;99.90;;;;;;5096580;28;20028;-72
2023/04/21 03:12:22;;;;;;;24.02;10.35;;;8.10;99.90;;;;;;5096674;28;20082;-72
2023/04/21 03:14:48;;;;;;;23.10;10.82;;;8.10;99.90;;;;;;5096765;28;20020;-72
2023/04/21 03:17:13;;;;;;;24.20;11.07;;;8.10;99.90;;;;;;5078310;28;20111;-72
2023/04/21 03:19:39;;;;;;;21.83;10.02;;;8.10;99.90;;;;;;5096134;28;20031;-72
2023/04/21 03:22:05;;;;;;;24.20;10.73;;;8.10;99.90;;;;;;5096291;28;20475;-72
2023/04/21 03:24:31;;;;;;;26.77;11.20;;;8.10;99.90;;;;;;5078219;28;20034;-72
2023/04/21 03:26:57;;;;;;;25.65;10.43;;;8.10;99.90;;;;;;5077833;28;20124;-71
2023/04/21 03:29:23;;;;;;;25.77;11.10;;;8.10;99.90;;;;;;5096343;28;20436;-71
2023/04/21 03:31:48;;;;;;;24.95;11.57;;;8.10;99.90;;;;;;5096411;28;20045;-72
2023/04/21 03:34:14;;;;;;;21.20;10.43;;;8.10;99.90;;;;;;5078122;28;20059;-72
2023/04/21 03:36:40;;;;;;;26.23;12.10;;;;;;;;;;5077296;28;20028;-73
2023/04/21 03:39:06;;;;;;;25.20;11.65;;;8.20;99.90;;;;;;5077893;28;20028;-72
2023/04/21 03:41:32;;;;;;;24.10;10.73;;;8.20;99.90;;;;;;5077863;28;20368;-72
2023/04/21 03:43:58;;;;;;;28.02;11.85;;;8.20;99.90;;;;;;5096342;28;20460;-72
2023/04/21 03:46:24;;;;;;;23.10;9.95;;;8.10;99.90;;;;;;5077434;28;20025;-72
2023/04/21 03:48:50;;;;;;;22.85;9.98;;;8.10;99.90;;;;;;5077922;28;20028;-72
2023/04/21 03:51:15;;;;;;;23.52;10.48;;;8.20;99.90;;;;;;5095863;28;20020;-72
2023/04/21 03:53:41;;;;;;;22.95;10.80;;;8.10;99.90;;;;;;5077582;28;20535;-72
2023/04/21 03:56:07;;;;;;;20.80;11.05;;;8.20;99.90;;;;;;5077194;28;20040;-72
2023/04/21 03:58:33;;;;;;;23.60;10.88;;;8.10;99.90;;;;;;5077153;28;20024;-72
2023/04/21 04:00:58;;;;;;;24.58;10.25;;;8.20;99.90;;;;;;5095379;28;20031;-72
2023/04/21 04:03:24;;;;;;;18.92;9.55;;;8.20;99.90;;;;;;5077613;28;20029;-72
2023/04/21 04:05:50;;;;;;;19.13;9.38;;;8.20;99.90;;;;;;5077342;28;20020;-73
2023/04/21 04:08:15;;;;;;;21.83;10.40;;;8.20;99.90;;;;;;5095285;28;20107;-73
2023/04/21 04:10:41;;;;;;;22.13;9.90;;;8.10;99.90;;;;;;5077420;28;20024;-72
2023/04/21 04:13:06;;;;;;;21.42;9.82;;;8.20;99.90;;;;;;5077119;28;20467;-73
2023/04/21 04:15:32;;;;;;;21.90;10.20;;;8.10;99.90;;;;;;5077965;28;20371;-72
2023/04/21 04:17:57;;;;;;;20.60;9.77;;;8.10;99.90;;;;;;5077264;28;20017;-72
2023/04/21 04:20:24;;;;;;;22.80;9.82;;;8.10;99.90;;;;;;5076990;28;20073;-73
2023/04/21 04:22:49;;;;;;;21.80;9.70;;;8.10;99.90;;;;;;5076807;28;20093;-73
2023/04/21 04:25:15;;;;;;;20.33;9.57;;;8.20;99.90;;;;;;5077076;28;20012;-73
2023/04/21 04:27:43;;;;;;;20.40;9.52;;;8.10;99.90;;;;;;5077117;28;20020;-73
2023/04/21 04:30:09;;;;;;;22.75;10.20;;;8.20;99.90;;;;;;5095063;28;20058;-73
2023/04/21 04:32:38;;;;;;;19.70;9.70;;;8.10;99.90;;;;;;5076865;28;20107;-73
2023/04/21 04:35:04;;;;;;;21.85;10.38;;;8.20;99.90;;;;;;5075334;28;20028;-73
2023/04/21 04:37:30;;;;;;;21.55;10.00;;;8.20;99.90;;;;;;5056647;28;20135;-73
2023/04/21 04:39:56;;;;;;;24.42;10.32;;;8.20;99.90;;;;;;5074457;28;20016;-73
2023/04/21 04:42:24;;;;;;;22.90;10.88;;;8.20;99.90;;;;;;5056666;28;20391;-73
2023/04/21 04:44:52;;;;;;;24.77;11.85;;;8.20;99.90;;;;;;5093353;28;20070;-73
2023/04/21 04:47:18;;;;;;;22.95;10.45;;;8.20;99.90;;;;;;5094596;28;20432;-72
2023/04/21 04:49:43;;;;;;;25.88;11.20;;;8.20;99.90;;;;;;5095238;28;20028;-73
2023/04/21 04:52:09;;;;;;;25.25;12.30;;;8.20;99.90;;;;;;5094761;28;20024;-72
2023/04/21 04:54:35;;;;;;;25.02;11.63;;;8.20;99.90;;;;;;5093876;28;20402;-73
2023/04/21 04:57:01;;;;;;;24.38;11.20;;;8.20;99.90;;;;;;5094474;28;20035;-73
2023/04/21 04:59:27;;;;;;;26.42;12.10;;;8.10;99.90;;;;;;5076108;28;20564;-73
2023/04/21 05:01:52;;;;;;;27.05;12.88;;;8.10;99.90;;;;;;5094453;28;20016;-73
2023/04/21 05:04:18;;;;;;;27.90;12.85;;;8.10;99.90;;;;;;5093697;28;20077;-73
2023/04/21 05:06:43;;;;;;;26.77;11.75;;;8.20;99.90;;;;;;5076089;28;20021;-73
2023/04/21 05:09:09;;;;;;;26.67;12.57;;;8.20;99.90;;;;;;5076188;28;20082;-73
2023/04/21 05:11:35;;;;;;;28.25;11.98;;;8.20;99.90;;;;;;5094296;28;20035;-73
2023/04/21 05:14:03;;;;;;;27.63;12.05;;;8.20;99.90;;;;;;5075755;28;20030;-72
2023/04/21 05:16:29;;;;;;;27.35;13.07;;;;;;;;;;5075992;28;20039;-73
2023/04/21 05:18:54;;;;;;;23.40;10.80;;;8.20;99.90;;;;;;5094065;28;20024;-73
2023/04/21 05:21:28;;;;;;;26.73;12.57;;;8.20;99.90;;;;;;5075986;28;20020;-73
2023/04/21 05:23:55;;;;;;;30.05;13.18;;;8.20;99.90;;;;;;5094016;28;20103;-73
2023/04/21 05:26:21;;;;;;;28.77;13.20;;;8.20;99.90;;;;;;5094579;28;20020;-73
2023/04/21 05:28:46;;;;;;;25.80;12.15;;;8.30;99.90;;;;;;5093869;28;20028;-73
2023/04/21 05:31:12;;;;;;;29.75;12.38;;;8.30;99.90;;;;;;5093733;28;20073;-72
2023/04/21 05:33:37;;;;;;;26.35;12.85;;;8.30;99.90;;;;;;5093965;28;20124;-73
2023/04/21 05:36:07;;;;;;;26.98;12.15;;;8.30;99.90;;;;;;5094144;28;20024;-73
2023/04/21 05:38:33;;;;;;;23.55;12.68;;;8.30;99.90;;;;;;5094077;28;20028;-73
2023/04/21 05:40:59;;;;;;;29.85;12.65;;;8.30;99.90;;;;;;5076268;28;20418;-73
2023/04/21 05:43:25;;;;;;;28.05;12.63;;;8.40;99.90;;;;;;5075755;28;20028;-73
2023/04/21 05:45:50;;;;;;;26.75;11.82;;;8.40;99.90;;;;;;5075776;28;20048;-73
2023/04/21 05:48:16;;;;;;;27.60;12.93;;;8.50;99.90;;;;;;5075363;28;20067;-73
2023/04/21 05:50:41;;;;;;;25.20;12.13;;;8.50;99.90;;;;;;5075752;28;20471;-73
2023/04/21 05:53:07;;;;;;;28.75;13.88;;;8.50;99.90;;;;;;5075723;28;20016;-73
2023/04/21 05:55:33;;;;;;;29.80;13.82;;;8.60;99.90;;;;;;5075391;28;20034;-73
2023/04/21 05:57:59;;;;;;;29.40;14.10;;;8.60;99.90;;;;;;5075601;28;20016;-73
2023/04/21 06:00:25;;;;;;;28.35;14.13;;;8.70;99.90;;;;;;5092581;28;20035;-73
2023/04/21 06:02:50;;;;;;;27.45;13.50;;;8.70;99.90;;;;;;5075181;28;20024;-73
2023/04/21 06:05:16;;;;;;;32.28;14.52;;;8.80;99.90;;;;;;5092869;28;20024;-72
2023/04/21 06:07:42;;;;;;;30.73;14.02;;;8.80;99.90;;;;;;5093846;28;20060;-72
2023/04/21 06:10:07;;;;;;;26.40;13.02;;;8.90;99.90;;;;;;5074188;28;20027;-72
2023/04/21 06:12:33;;;;;;;30.15;14.07;;;8.90;99.90;;;;;;5091632;28;20105;-72
2023/04/21 06:14:59;;;;;;;27.95;13.73;;;8.90;99.90;;;;;;5092740;28;20027;-73
2023/04/21 06:17:24;;;;;;;31.10;13.90;;;9.00;99.90;;;;;;5092837;28;20020;-72
2023/04/21 06:19:52;;;;;;;28.55;13.98;;;9.00;99.90;;;;;;5092317;28;20028;-71
2023/04/21 06:22:24;;;;;;;27.67;13.63;;;9.00;99.90;;;;;;5074538;28;20020;-74
2023/04/21 06:24:50;;;;;;;30.75;14.20;;;9.10;99.90;;;;;;5074955;28;20024;-72
2023/04/21 06:27:16;;;;;;;30.60;14.07;;;9.10;99.90;;;;;;5075084;28;20027;-72
2023/04/21 06:29:42;;;;;;;32.33;15.48;;;9.10;99.90;;;;;;5093312;28;20028;-71
2023/04/21 06:32:11;;;;;;;30.45;14.10;;;9.10;99.90;;;;;;5075128;28;20031;-72
2023/04/21 06:34:37;;;;;;;28.90;13.95;;;9.20;99.90;;;;;;5093159;28;20106;-71
2023/04/21 06:37:03;;;;;;;30.85;14.15;;;9.20;99.90;;;;;;5093285;28;20028;-71
2023/04/21 06:39:28;;;;;;;27.17;13.82;;;9.30;99.90;;;;;;5075153;28;20107;-72
2023/04/21 06:41:54;;;;;;;30.38;14.70;;;9.30;99.90;;;;;;5093189;28;20441;-72
2023/04/21 06:44:20;;;;;;;30.13;14.43;;;9.40;99.90;;;;;;5075028;28;20016;-73
2023/04/21 06:46:46;;;;;;;30.38;14.27;;;9.60;99.90;;;;;;5093091;28;20100;-73
2023/04/21 06:49:12;;;;;;;29.83;15.23;;;9.60;99.90;;;;;;5075102;28;20402;-74
2023/04/21 06:51:41;;;;;;;32.17;14.63;;;9.80;99.90;;;;;;5074883;28;20020;-73
2023/04/21 06:54:07;;;;;;;30.00;13.98;;;9.70;99.90;;;;;;5093134;28;20035;-73
2023/04/21 06:56:33;;;;;;;29.40;13.65;;;9.90;99.90;;;;;;5092965;28;20032;-73
2023/04/21 06:58:58;;;;;;;31.98;13.32;;;9.90;99.90;;;;;;5093252;28;20018;-73
2023/04/21 07:01:24;;;;;;;29.58;14.25;;;9.90;99.90;;;;;;5074984;28;20555;-73
2023/04/21 07:03:50;;;;;;;32.70;15.00;;;10.00;99.90;;;;;;5093315;28;20028;-74
2023/04/21 07:06:15;;;;;;;27.00;13.98;;;10.10;99.90;;;;;;5092888;28;20016;-73
2023/04/21 07:08:41;;;;;;;35.25;16.00;;;10.40;99.90;;;;;;5075095;28;20074;-73
2023/04/21 07:11:07;;;;;;;27.17;13.15;;;10.40;99.90;;;;;;5094153;28;20020;-73
2023/04/21 07:13:32;;;;;;;27.77;13.50;;;10.60;99.90;;;;;;5096777;28;20056;-74
2023/04/21 07:15:58;;;;;;;27.10;12.85;;;10.80;99.90;;;;;;5078401;28;20552;-73
2023/04/21 07:18:24;;;;;;;28.38;13.80;;;10.80;99.90;;;;;;5096352;28;20028;-74
2023/04/21 07:20:49;;;;;;;26.92;13.30;;;10.90;99.90;;;;;;5097361;28;20028;-74
2023/04/21 07:23:15;;;;;;;26.05;13.82;;;10.80;99.90;;;;;;5096546;28;20031;-74
2023/04/21 07:25:41;;;;;;;27.13;13.50;;;10.80;99.90;;;;;;5078341;28;20112;-74
2023/04/21 07:28:06;;;;;;;26.60;13.70;;;10.70;99.90;;;;;;5078203;28;20008;-74
2023/04/21 07:30:32;;;;;;;31.02;14.38;;;10.60;99.90;;;;;;5096512;28;20021;-73
2023/04/21 07:32:57;;;;;;;30.50;14.50;;;10.60;99.90;;;;;;5078338;28;20399;-74
2023/04/21 07:35:24;;;;;;;31.98;14.57;;;10.80;99.90;;;;;;5096153;28;20035;-73
2023/04/21 07:37:49;;;;;;;31.30;14.45;;;10.90;99.90;;;;;;5097023;28;20113;-73
2023/04/21 07:40:15;;;;;;;28.35;14.68;;;11.00;99.90;;;;;;5096176;28;20048;-73
2023/04/21 07:42:40;;;;;;;27.65;13.90;;;11.30;99.90;;;;;;5096606;28;20379;-73
2023/04/21 07:45:06;;;;;;;29.70;14.82;;;11.40;99.90;;;;;;5095742;28;20115;-73
2023/04/21 07:47:32;;;;;;;29.25;14.45;;;11.60;99.90;;;;;;5095794;28;20016;-73
2023/04/21 07:49:57;;;;;;;29.92;15.27;;;11.70;99.90;;;;;;5078626;28;20027;-74
2023/04/21 07:52:23;;;;;;;30.58;13.65;;;11.80;99.90;;;;;;5096182;28;20062;-73
2023/04/21 07:54:49;;;;;;;26.45;13.95;;;11.90;99.90;;;;;;5095826;28;20498;-73
2023/04/21 07:57:15;;;;;;;29.23;14.57;;;12.10;99.90;;;;;;5095414;28;20073;-75
2023/04/21 07:59:41;;;;;;;24.38;12.68;;;12.20;99.90;;;;;;5095302;28;20029;-75
2023/04/21 08:02:07;;;;;;;26.77;14.02;;;12.10;99.90;;;;;;5095290;28;20024;-75
2023/04/21 08:04:32;;;;;;;27.02;13.90;;;12.10;99.90;;;;;;5078338;28;20024;-76
2023/04/21 08:06:58;;;;;;;29.40;14.63;;;12.10;99.90;;;;;;5079045;28;20020;-76
2023/04/21 08:09:24;;;;;;;27.48;12.68;;;12.00;99.90;;;;;;5096408;28;20016;-76
2023/04/21 08:11:49;;;;;;;25.25;13.10;;;12.60;99.90;;;;;;5096827;28;20054;-76
2023/04/21 08:14:15;;;;;;;26.50;13.35;;;12.00;99.90;;;;;;5096503;28;20483;-76
2023/04/21 08:16:41;;;;;;;28.60;13.25;;;12.10;99.90;;;;;;5096620;28;20497;-76
2023/04/21 08:19:07;;;;;;;25.50;13.52;;;12.10;99.90;;;;;;5077886;28;20024;-76
2023/04/21 08:21:33;;;;;;;28.02;14.23;;;13.10;99.90;;;;;;5096248;28;20034;-76
2023/04/21 08:23:59;;;;;;;25.15;13.00;;;12.30;99.90;;;;;;5095841;28;20107;-76
2023/04/21 08:26:25;;;;;;;29.17;13.70;;;14.30;99.90;;;;;;5078565;28;20028;-76
2023/04/21 08:28:51;;;;;;;26.73;13.38;;;12.60;99.90;;;;;;5095972;28;20109;-76
2023/04/21 08:31:18;;;;;;;26.25;13.80;;;12.70;99.90;;;;;;5096254;28;20024;-76
2023/04/21 08:33:44;;;;;;;27.98;13.05;;;;;;;;;;5077881;28;20047;-76
2023/04/21 08:36:10;;;;;;;25.63;13.43;;;12.60;99.90;;;;;;5077688;28;20479;-76
2023/04/21 08:38:36;;;;;;;24.90;12.48;;;12.60;99.90;;;;;;5096226;28;20073;-76
2023/04/21 08:41:03;;;;;;;22.75;12.27;;;12.60;99.90;;;;;;5096193;28;20024;-76
2023/04/21 08:43:29;;;;;;;22.52;12.93;;;12.50;99.90;;;;;;5077554;28;20012;-76
2023/04/21 08:45:55;;;;;;;26.02;14.35;;;13.20;99.90;;;;;;5077786;28;20038;-76
2023/04/21 08:48:23;;;;;;;24.13;12.95;;;12.60;99.90;;;;;;5095990;28;20077;-76
2023/04/21 08:50:49;;;;;;;23.75;12.93;;;12.70;99.90;;;;;;5077611;28;20016;-76
2023/04/21 08:53:16;;;;;;;23.50;12.63;;;13.30;99.90;;;;;;5095453;28;20490;-76
2023/04/21 08:55:42;;;;;;;26.98;12.43;;;13.10;99.90;;;;;;5095481;28;20062;-76
2023/04/21 08:58:08;;;;;;;26.13;11.68;;;13.20;99.90;;;;;;5077290;28;20538;-76
2023/04/21 09:00:35;;;;;;;26.85;14.20;;;13.30;99.90;;;;;;5077375;28;20111;-76
2023/04/21 09:03:01;;;;;;;21.60;11.90;;;;;;;;;;5076958;28;20107;-76
2023/04/21 09:05:36;;;;;;;19.33;11.35;;;13.40;99.90;;;;;;5095679;28;20440;-76
2023/04/21 09:08:17;;;;;;;25.85;11.35;;;13.50;99.90;;;;;;5095255;28;20016;-76
2023/04/21 09:10:50;;;;;;;21.85;11.38;;;13.70;99.90;;;;;;5095398;28;20028;-76
2023/04/21 09:13:17;;;;;;;19.92;9.93;;;14.00;99.90;;;;;;5095100;28;20477;-76
2023/04/21 09:15:45;;;;;;;19.15;10.65;;;17.60;99.90;;;;;;5094561;28;20028;-76
2023/04/21 09:18:15;;;;;;;21.75;11.23;;;14.40;99.90;;;;;;5094658;28;20089;-76
2023/04/21 09:20:42;;;;;;;19.05;10.65;;;14.40;99.90;;;;;;5094690;28;20475;-75
2023/04/21 09:23:09;;;;;;;20.90;10.43;;;14.40;99.90;;;;;;5094498;28;20479;-75
2023/04/21 09:25:38;;;;;;;17.85;9.52;;;14.40;99.90;;;;;;5056339;28;20051;-75
2023/04/21 09:28:07;;;;;;;;;;;14.40;99.90;;;;;;5056522;28;20012;-75
2023/04/21 09:30:37;;;;;;;16.25;9.10;;;14.50;99.90;;;;;;5074082;28;19905;-75
2023/04/21 09:33:03;;;;;;;18.55;9.77;;;14.50;99.90;;;;;;5073956;28;20078;-75
2023/04/21 09:35:35;;;;;;;18.67;10.18;;;14.50;99.90;;;;;;5093130;28;20028;-75
2023/04/21 09:38:02;;;;;;;16.92;9.93;;;14.30;99.90;;;;;;5094383;28;20479;-75
2023/04/21 09:40:29;;;;;;;17.88;9.75;;;14.40;99.90;;;;;;5094069;28;20016;-75
2023/04/21 09:42:55;;;;;;;17.00;9.10;;;14.30;99.90;;;;;;5094358;28;20387;-75
2023/04/21 09:45:25;;;;;;;20.15;9.93;;;14.40;99.90;;;;;;5075606;28;20020;-75
2023/04/21 09:47:55;;;;;;;18.83;9.63;;;14.50;99.90;;;;;;5075756;28;20028;-75
2023/04/21 09:50:22;;;;;;;19.73;9.20;;;15.80;99.90;;;;;;5094274;28;20027;-75
2023/04/21 09:52:50;;;;;;;17.92;9.43;;;14.70;99.90;;;;;;5094091;28;20058;-75
2023/04/21 09:55:17;;;;;;;16.95;9.43;;;14.80;99.90;;;;;;5075788;28;20056;-75
2023/04/21 09:57:45;;;;;;;21.33;9.60;;;14.80;99.90;;;;;;5075626;28;20542;-75
2023/04/21 10:00:13;;;;;;;18.60;9.20;;;14.90;99.90;;;;;;5075665;28;20035;-75
2023/04/21 10:02:52;;;;;;;20.60;10.70;;;15.00;99.90;;;;;;5075801;28;20032;-75
2023/04/21 10:05:17;;;;;;;17.73;9.48;;;15.00;99.90;;;;;;5094179;28;20025;-75
2023/04/21 10:07:44;;;;;;;16.83;9.75;;;15.20;99.90;;;;;;5076171;28;20028;-75
2023/04/21 10:10:32;;;;;;;15.80;9.48;;;;;;;;;;5075897;28;20032;-75
2023/04/21 10:12:58;;;;;;;19.27;9.30;;;15.30;99.90;;;;;;5094017;28;20372;-75
2023/04/21 10:15:36;;;;;;;18.92;9.57;;;16.00;99.90;;;;;;5093665;28;20028;-75
2023/04/21 10:18:13;;;;;;;18.73;10.07;;;15.30;99.90;;;;;;5093535;28;20056;-75
2023/04/21 10:21:02;;;;;;;17.17;9.70;;;15.30;99.90;;;;;;5075390;28;20028;-75
2023/04/21 10:23:30;;;;;;;18.02;8.95;;;15.40;99.90;;;;;;5075436;28;20043;-75
2023/04/21 10:26:21;;;;;;;15.10;8.90;;;15.40;99.90;;;;;;5093543;28;20023;-75
2023/04/21 10:29:01;;;;;;;16.23;9.63;;;15.30;99.90;;;;;;5094095;28;20031;-75
2023/04/21 10:31:35;;;;;;;16.33;8.85;;;15.40;99.90;;;;;;5075414;28;20127;-75
2023/04/21 10:34:07;;;;;;;18.98;8.93;;;15.40;99.90;;;;;;5092774;28;20499;-75
2023/04/21 10:36:34;;;;;;;15.77;9.25;;;15.40;99.90;;;;;;5094372;28;20020;-75
2023/04/21 10:39:04;;;;;;;16.05;8.43;;;15.50;99.90;;;;;;5093520;28;20028;-75
2023/04/21 10:41:31;;;;;;;15.25;7.88;;;15.50;99.90;;;;;;5093346;28;20048;-75
2023/04/21 10:44:11;;;;;;;15.18;8.23;;;16.40;99.90;;;;;;5092687;28;20047;-73
2023/04/21 10:46:39;;;;;;;13.43;8.10;;;15.40;99.90;;;;;;5095285;28;20020;-74
2023/04/21 10:49:09;;;;;;;15.57;8.55;;;15.40;99.90;;;;;;5079125;28;20395;-72
2023/04/21 10:51:57;;;;;;;15.82;8.40;;;15.40;99.90;;;;;;5078938;28;20020;-73
2023/04/21 10:54:24;;;;;;;14.90;8.73;;;15.20;99.90;;;;;;5096651;28;20028;-73
2023/04/21 10:56:54;;;;;;;16.20;8.48;;;15.00;99.90;;;;;;5096934;28;20387;-74
2023/04/21 10:59:20;;;;;;;16.98;9.25;;;15.10;99.90;;;;;;5097213;28;20032;-74
2023/04/21 11:01:46;;;;;;;14.43;7.85;;;15.30;99.90;;;;;;5096887;28;20028;-74
2023/04/21 11:04:14;;;;;;;17.27;8.32;;;15.40;99.90;;;;;;5078434;28;20119;-74
2023/04/21 11:06:40;;;;;;;20.02;8.95;;;16.10;99.90;;;;;;5078282;28;20075;-75
2023/04/21 11:09:05;;;;;;;16.63;9.07;;;16.40;99.90;;;;;;5096325;28;20059;-74
2023/04/21 11:11:31;;;;;;;17.75;8.88;;;16.60;99.90;;;;;;5078617;28;20028;-75
2023/04/21 11:14:00;;;;;;;19.70;9.25;;;16.70;99.90;;;;;;5096794;28;20487;-74
2023/04/21 11:16:25;;;;;;;14.98;8.85;;;16.80;99.90;;;;;;5078387;28;20057;-74
2023/04/21 11:18:51;;;;;;;16.38;8.35;;;16.70;99.90;;;;;;5077496;28;20076;-74
2023/04/21 11:21:20;;;;;;;15.90;8.77;;;16.60;99.90;;;;;;5096645;28;20082;-74
2023/04/21 11:23:53;;;;;;;15.73;8.65;;;16.50;99.90;;;;;;5096494;28;20027;-74
2023/04/21 11:26:29;;;;;;;17.98;8.30;;;;;;;;;;5096385;28;20047;-77
2023/04/21 11:28:55;;;;;;;16.10;8.45;;;16.50;99.90;;;;;;5096953;28;20020;-74
2023/04/21 11:31:22;;;;;;;16.13;8.43;;;16.50;99.90;;;;;;5096887;28;20047;-74
2023/04/21 11:33:49;;;;;;;16.98;9.10;;;16.40;99.90;;;;;;5078189;28;20391;-74
2023/04/21 11:36:15;;;;;;;18.75;9.30;;;16.40;99.90;;;;;;5096249;28;20027;-74
2023/04/21 11:38:40;;;;;;;15.30;8.95;;;16.40;99.90;;;;;;5078045;28;20024;-74
2023/04/21 11:41:08;;;;;;;16.75;8.75;;;16.40;99.90;;;;;;5077988;28;20042;-74
2023/04/21 11:43:35;;;;;;;16.80;8.67;;;16.60;99.90;;;;;;5095971;28;20020;-76
2023/04/21 11:46:25;;;;;;;16.02;8.60;;;16.60;99.90;;;;;;5096172;28;20266;-75
2023/04/21 11:49:06;;;;;;;15.60;8.40;;;16.70;99.90;;;;;;5095756;28;20031;-75
2023/04/21 11:51:33;;;;;;;20.13;9.20;;;17.00;99.90;;;;;;5095659;28;20028;-75
2023/04/21 11:53:59;;;;;;;13.75;7.00;;;17.40;99.90;;;;;;5077734;28;20501;-75
2023/04/21 11:56:25;;;;;;;13.52;8.25;;;17.50;99.90;;;;;;5095736;28;20082;-75
2023/04/21 11:58:51;;;;;;;16.25;8.32;;;17.60;99.90;;;;;;5094283;28;20032;-75
2023/04/21 12:01:19;;;;;;;14.35;7.70;;;17.80;99.90;;;;;;5077261;28;20027;-76
2023/04/21 12:03:55;;;;;;;15.90;8.02;;;18.10;99.90;;;;;;5077284;28;20024;-76
2023/04/21 12:06:30;;;;;;;14.50;8.15;;;18.10;99.90;;;;;;5077450;28;20016;-75
2023/04/21 12:09:00;;;;;;;14.57;8.10;;;17.90;99.90;;;;;;5095694;28;20086;-75
2023/04/21 12:11:33;;;;;;;13.50;7.15;;;18.00;99.90;;;;;;5077448;28;20024;-76
2023/04/21 12:13:59;;;;;;;13.90;7.85;;;17.60;99.90;;;;;;5095061;28;20042;-76
2023/04/21 12:16:26;;;;;;;14.65;8.07;;;17.70;99.90;;;;;;5095259;28;20028;-76
2023/04/21 12:18:52;;;;;;;15.52;9.00;;;17.60;99.90;;;;;;5095497;28;20068;-76
2023/04/21 12:21:18;;;;;;;18.33;9.57;;;17.70;99.90;;;;;;5077217;28;20027;-76
2023/04/21 12:23:43;;;;;;;15.00;8.85;;;18.20;99.90;;;;;;5095372;28;20024;-76
2023/04/21 12:26:09;;;;;;;15.15;9.25;;;17.70;99.90;;;;;;5077037;28;20111;-76
2023/04/21 12:28:36;;;;;;;18.27;9.00;;;17.80;99.90;;;;;;5095066;28;20103;-76
2023/04/21 12:31:01;;;;;;;18.00;9.48;;;18.10;99.90;;;;;;5095145;28;20012;-76
2023/04/21 12:33:28;;;;;;;14.75;8.65;;;;;;;;;;5094554;28;20016;-76
2023/04/21 12:35:53;;;;;;;13.55;8.30;;;19.20;99.90;;;;;;5077114;28;20524;-76
2023/04/21 12:38:19;;;;;;;16.35;7.40;;;19.40;99.90;;;;;;5094971;28;20016;-77
2023/04/21 12:40:44;;;;;;;11.52;7.28;;;19.20;99.90;;;;;;5094875;28;20032;-76